Time;durP1;ratioP1;P1;durP2;ratioP2;P2;SDS_P1;SDS_P2;PMS_P1;PMS_P2;Temp;Humidity;BMP_temperature;BMP_pressure;BME280_temperature;BME280_humidity;BME280_pressure;Samples;Min_cycle;Max_cycle;Signal;HPM_P1;HPM_P2
2021/12/14 00:00:39;;;;;;;197.88;74.97;;;;;;;1.09;79.11;99523.84;5111244;28;20024;-69
2021/12/14 00:03:06;;;;;;;200.82;73.35;;;;;;;1.06;79.15;99528.84;5093077;28;20032;-70
2021/12/14 00:05:32;;;;;;;194.65;73.78;;;;;;;1.01;79.07;99535.69;5111194;28;20026;-70
2021/12/14 00:08:01;;;;;;;199.38;76.25;;;;;;;1.02;79.69;99529.25;5110726;28;20027;-70
2021/12/14 00:13:03;;;;;;;191.50;71.47;;;;;;;1.05;79.52;99525.31;5111090;28;20034;-68
2021/12/14 00:15:29;;;;;;;204.15;74.53;;;;;;;1.03;79.30;99525.53;5110763;28;20032;-69
2021/12/14 00:18:03;;;;;;;199.93;71.60;;;;;;;1.02;79.52;99528.41;5110179;28;20047;-69
2021/12/14 00:20:37;;;;;;;182.68;67.53;;;;;;;1.01;79.44;99533.00;5112623;27;20082;-70
2021/12/14 00:25:35;;;;;;;196.07;73.35;;;;;;;0.93;79.49;99532.38;5110689;28;20024;-66
2021/12/14 00:28:07;;;;;;;189.07;72.22;;;;;;;0.92;79.68;99538.81;5109944;28;20052;-66
2021/12/14 00:30:35;;;;;;;188.50;70.03;;;;;;;0.91;79.83;99537.16;5110440;28;20112;-67
2021/12/14 00:33:01;;;;;;;198.52;71.35;;;;;;;0.91;80.05;99542.56;5089524;28;20379;-67
2021/12/14 00:35:26;;;;;;;199.35;74.13;;;;;;;0.93;79.42;99549.41;5089543;28;20023;-67
2021/12/14 00:37:53;;;;;;;213.88;75.57;;;;;;;1.01;79.93;99549.22;5108364;28;20039;-67
2021/12/14 00:40:29;;;;;;;199.88;71.43;;;;;;;1.06;80.33;99553.97;5108859;28;20567;-66
2021/12/14 00:42:57;;;;;;;189.68;69.15;;;;;;;1.07;80.21;99546.72;5106633;28;20020;-66
2021/12/14 00:45:24;;;;;;;192.95;72.65;;;;;;;1.07;80.22;99547.53;5109011;28;20015;-67
2021/12/14 00:47:50;;;;;;;201.48;73.03;;;;;;;1.11;80.17;99546.09;5108182;28;20070;-68
2021/12/14 00:50:18;;;;;;;193.27;71.95;;;;;;;1.13;80.23;99545.91;5107835;28;20054;-67
2021/12/14 00:52:44;;;;;;;200.85;72.63;;;;;;;1.18;79.69;99548.81;5108880;28;20106;-67
2021/12/14 00:55:13;;;;;;;179.98;68.35;;;;;;;1.19;79.99;99545.06;5109057;28;20104;-67
2021/12/14 00:57:38;;;;;;;194.85;70.28;;;;;;;1.26;80.24;99545.06;5107518;28;20031;-67
2021/12/14 01:00:12;;;;;;;150.18;55.42;;;;;;;1.32;80.46;99542.34;5108814;28;20368;-68
2021/12/14 01:02:38;;;;;;;166.27;60.92;;;;;;;1.32;79.84;99536.94;5108109;28;20114;-67
2021/12/14 01:05:11;;;;;;;172.85;63.05;;;;;;;1.30;80.09;99543.59;5108284;28;20498;-69
2021/12/14 01:07:36;;;;;;;183.55;64.03;;;;;;;1.33;80.00;99538.59;5089937;28;20035;-69
2021/12/14 01:10:09;;;;;;;157.70;56.58;;;;;;;1.34;79.46;99542.97;5104668;27;20027;-68
2021/12/14 01:13:10;;;;;;;178.40;68.25;;;;;;;1.24;79.09;99549.84;5112024;28;20095;-69
2021/12/14 01:16:00;;;;;;;213.75;78.82;;;;;;;1.11;79.96;99543.38;5108609;28;20054;-67
2021/12/14 01:21:12;;;;;;;248.95;86.68;;;;;;;1.03;79.87;99544.44;5110245;28;20040;-68
2021/12/14 01:23:38;;;;;;;261.95;95.38;;;;;;;1.02;79.31;99545.47;5112603;28;20024;-69
2021/12/14 01:26:11;;;;;;;287.08;99.60;;;;;;;1.08;79.85;99549.19;5094956;28;20032;-68
2021/12/14 01:28:38;;;;;;;297.52;103.55;;;;;;;1.14;80.43;99542.97;5112274;28;20059;-69
2021/12/14 01:31:17;;;;;;;287.83;98.72;;;;;;;1.19;79.86;99548.59;5111327;28;20518;-69
2021/12/14 01:33:47;;;;;;;275.38;99.30;;;;;;;1.15;80.03;99538.41;5111591;28;20096;-68
2021/12/14 01:36:27;;;;;;;276.95;97.75;;;;;;;1.11;79.48;99550.69;5093308;28;20042;-69
2021/12/14 01:41:39;;;;;;;262.25;95.38;;;;;;;1.10;79.91;99541.72;5110285;28;20039;-68
2021/12/14 01:44:05;;;;;;;270.00;95.40;;;;;;;1.09;79.58;99540.06;5111471;28;20110;-69
2021/12/14 01:46:43;;;;;;;265.50;95.90;;;;;;;1.07;79.77;99542.13;5111039;28;20549;-68
2021/12/14 01:49:11;;;;;;;297.67;100.57;;;;;;;1.09;79.44;99537.34;5110583;28;20019;-69
2021/12/14 01:51:42;;;;;;;260.27;91.50;;;;;;;1.11;79.59;99535.28;5111725;28;20110;-68
2021/12/14 01:54:11;;;;;;;238.88;88.47;;;;;;;1.07;79.77;99539.44;5111930;28;20027;-68
2021/12/14 01:56:37;;;;;;;243.20;84.63;;;;;;;1.02;79.67;99539.22;5111855;28;20039;-69
2021/12/14 01:59:17;;;;;;;226.40;82.28;;;;;;;0.96;79.53;99530.09;5112540;27;20278;-69
2021/12/14 02:01:54;;;;;;;227.45;80.20;;;;;;;0.90;79.30;99539.00;5112736;27;20068;-69
2021/12/14 02:04:22;;;;;;;221.95;77.72;;;;;;;0.82;79.62;99540.03;5114436;27;20031;-68
2021/12/14 02:07:15;;;;;;;230.82;82.97;;;;;;;0.76;79.32;99534.66;5091519;28;20616;-69
2021/12/14 02:09:41;;;;;;;223.18;80.13;;;;;;;0.75;79.40;99539.19;5106564;28;20048;-69
2021/12/14 02:12:14;;;;;;;210.85;76.72;;;;;;;0.76;79.50;99534.66;5111617;27;20100;-70
2021/12/14 02:14:40;;;;;;;212.30;75.78;;;;;;;0.73;79.93;99534.03;5093871;28;20027;-66
2021/12/14 02:17:08;;;;;;;204.73;73.45;;;;;;;0.74;79.57;99545.63;5110550;28;20027;-66
2021/12/14 02:19:35;;;;;;;198.40;67.88;;;;;;;0.73;79.96;99546.69;5110811;28;20036;-66
2021/12/14 02:22:02;;;;;;;174.98;61.65;;;;;;;0.70;79.70;99547.94;5110200;28;20020;-67
2021/12/14 02:24:29;;;;;;;158.45;56.83;;;;;;;0.73;79.36;99543.97;5110963;28;20030;-67
2021/12/14 02:26:55;;;;;;;153.82;56.33;;;;;;;0.80;80.25;99536.72;5110822;28;20024;-67
2021/12/14 02:29:30;;;;;;;136.70;50.20;;;;;;;0.80;80.23;99547.53;5111219;28;20098;-67
2021/12/14 02:32:17;;;;;;;123.22;46.72;;;;;;;0.77;79.83;99539.81;5076307;28;20051;-67
2021/12/14 02:34:53;;;;;;;120.68;45.40;;;;;;;0.73;79.43;99547.53;5110762;28;20538;-66
2021/12/14 02:37:38;;;;;;;107.20;43.45;;;;;;;0.68;79.82;99532.94;5109964;28;20015;-67
2021/12/14 02:40:18;;;;;;;105.00;40.83;;;;;;;0.69;79.78;99538.16;5110302;28;20032;-67
2021/12/14 02:42:45;;;;;;;111.97;45.13;;;;;;;0.70;80.16;99530.88;5110724;28;20028;-67
2021/12/14 02:45:11;;;;;;;116.40;44.70;;;;;;;0.76;79.94;99527.38;5111003;28;20463;-66
2021/12/14 02:47:36;;;;;;;108.28;42.20;;;;;;;0.76;80.26;99535.47;5110678;28;20032;-67
2021/12/14 02:50:04;;;;;;;116.97;45.45;;;;;;;0.70;79.98;99541.69;5110746;28;20151;-67
2021/12/14 02:52:36;;;;;;;106.93;42.58;;;;;;;0.62;80.12;99536.47;5108555;28;20094;-66
2021/12/14 02:55:16;;;;;;;103.65;41.83;;;;;;;0.57;79.86;99545.19;5111026;28;20032;-67
2021/12/14 02:57:45;;;;;;;110.25;42.50;;;;;;;0.57;79.87;99532.53;5109606;28;20038;-66
2021/12/14 03:00:24;;;;;;;108.88;40.83;;;;;;;0.57;79.82;99540.63;5109535;28;20115;-68
2021/12/14 03:02:51;;;;;;;114.10;44.28;;;;;;;0.57;80.29;99539.78;5109587;28;20034;-67
2021/12/14 03:05:31;;;;;;;117.93;44.92;;;;;;;0.62;80.20;99544.56;5092349;28;20020;-67
2021/12/14 03:08:03;;;;;;;113.53;45.85;;;;;;;0.72;80.68;99545.84;5110090;28;20027;-67
2021/12/14 03:12:58;;;;;;;142.05;50.63;;;;;;;0.87;81.18;99555.63;5110540;28;20391;-68
2021/12/14 03:15:28;;;;;;;142.40;56.45;;;;;;;0.94;81.21;99556.47;5110816;28;20016;-67
2021/12/14 03:17:59;;;;;;;140.48;52.13;;;;;;;0.92;80.06;99553.13;5109895;28;20040;-67
2021/12/14 03:20:35;;;;;;;;;;;;;;;0.89;80.89;99553.56;5109821;28;20059;-68
2021/12/14 03:23:18;;;;;;;179.23;64.78;;;;;;;0.95;80.76;99555.44;5110236;28;19919;-68
2021/12/14 03:25:47;;;;;;;156.63;56.65;;;;;;;0.96;80.37;99551.69;5110513;28;20484;-67
2021/12/14 03:28:14;;;;;;;196.68;72.82;;;;;;;0.97;80.78;99547.13;5110045;28;20070;-67
2021/12/14 03:30:50;;;;;;;226.13;81.05;;;;;;;0.96;80.58;99549.00;5091592;28;20016;-67
2021/12/14 03:33:22;;;;;;;276.33;102.72;;;;;;;0.97;80.83;99545.25;5109997;28;20119;-67
2021/12/14 03:35:58;;;;;;;300.23;106.63;;;;;;;1.03;81.00;99549.00;5108206;28;20503;-67
2021/12/14 03:38:33;;;;;;;300.67;105.97;;;;;;;1.08;80.81;99554.59;5107728;28;20022;-67
2021/12/14 03:41:03;;;;;;;287.75;103.57;;;;;;;1.10;80.47;99552.53;5109285;28;20115;-69
2021/12/14 03:43:29;;;;;;;264.38;88.70;;;;;;;1.07;80.78;99550.25;5109595;28;20020;-67
2021/12/14 03:45:56;;;;;;;272.38;97.55;;;;;;;1.03;80.79;99552.53;5109477;28;20080;-68
2021/12/14 03:48:25;;;;;;;239.13;84.30;;;;;;;0.96;80.16;99548.19;5109233;28;20024;-68
2021/12/14 03:50:52;;;;;;;260.90;90.20;;;;;;;0.93;80.20;99540.47;5090851;28;20016;-69
2021/12/14 03:53:19;;;;;;;236.52;82.63;;;;;;;0.88;80.36;99543.78;5109275;28;21325;-67
2021/12/14 03:55:49;;;;;;;238.63;85.38;;;;;;;0.84;79.89;99531.72;5109391;28;20131;-68
2021/12/14 03:58:20;;;;;;;219.73;79.75;;;;;;;0.81;80.73;99534.88;5109550;28;20027;-68
2021/12/14 04:00:50;;;;;;;218.60;73.72;;;;;;;0.79;80.17;99537.75;5109105;28;20023;-67
2021/12/14 04:03:17;;;;;;;204.10;80.47;;;;;;;0.77;80.84;99536.31;5109714;28;20024;-68
2021/12/14 04:05:46;;;;;;;206.30;75.90;;;;;;;0.76;80.44;99542.75;5090587;28;20509;-67
2021/12/14 04:08:13;;;;;;;217.75;76.40;;;;;;;0.79;80.78;99540.47;5108305;28;20011;-67
2021/12/14 04:10:41;;;;;;;251.32;86.82;;;;;;;0.85;80.43;99538.78;5109101;28;20134;-67
2021/12/14 04:13:08;;;;;;;237.55;82.18;;;;;;;0.96;80.59;99542.78;5108783;28;20050;-67
2021/12/14 04:15:34;;;;;;;218.05;75.05;;;;;;;1.00;80.47;99544.84;5107411;28;20027;-67
2021/12/14 04:18:00;;;;;;;204.65;69.93;;;;;;;0.97;80.65;99539.03;5108581;28;20100;-68
2021/12/14 04:20:32;;;;;;;210.77;77.38;;;;;;;0.89;79.94;99540.03;5089842;28;20035;-67
2021/12/14 04:22:59;;;;;;;188.00;68.97;;;;;;;0.89;80.44;99540.91;5108679;28;20027;-68
2021/12/14 04:25:31;;;;;;;194.05;71.13;;;;;;;0.85;80.57;99545.03;5090790;28;20563;-67
2021/12/14 04:27:58;;;;;;;192.00;72.63;;;;;;;0.83;80.16;99538.16;5108377;28;20031;-67
2021/12/14 04:30:27;;;;;;;198.52;71.47;;;;;;;0.79;80.37;99542.34;5108988;28;20483;-67
2021/12/14 04:32:56;;;;;;;206.13;76.25;;;;;;;0.76;80.43;99529.25;5103243;28;20024;-67
2021/12/14 04:35:22;;;;;;;195.25;72.10;;;;;;;0.79;80.59;99535.06;5108170;28;20115;-67
2021/12/14 04:37:56;;;;;;;193.75;72.97;;;;;;;0.81;80.63;99535.69;5107884;28;20107;-67
2021/12/14 04:51:57;;;;;;;173.57;72.25;;;;;;;0.86;80.34;99535.06;5108340;28;20046;-67
2021/12/14 04:54:24;;;;;;;181.98;67.88;;;;;;;0.82;80.66;99534.66;5108683;28;20395;-67
2021/12/14 04:56:49;;;;;;;183.02;62.92;;;;;;;0.81;80.31;99540.28;5108601;28;20016;-67
2021/12/14 04:59:35;;;;;;;159.45;58.30;;;;;;;0.78;80.61;99552.28;5108592;28;20433;-67
2021/12/14 05:02:11;;;;;;;167.40;59.00;;;;;;;0.78;80.61;99557.69;5106235;28;20027;-66
2021/12/14 05:04:38;;;;;;;146.75;55.03;;;;;;;0.79;80.64;99561.25;5106913;28;20023;-67
2021/12/14 05:09:48;;;;;;;157.70;57.67;;;;;;;0.79;79.87;99547.75;5109638;28;20088;-68
2021/12/14 05:12:21;;;;;;;150.25;54.10;;;;;;;0.86;80.53;99549.41;5107747;28;20020;-67
2021/12/14 05:14:47;;;;;;;150.40;53.30;;;;;;;0.86;80.47;99540.44;5108543;28;20085;-67
2021/12/14 05:17:20;;;;;;;154.32;56.63;;;;;;;0.82;80.76;99540.03;5108174;28;20143;-67
2021/12/14 05:19:46;;;;;;;152.43;61.15;;;;;;;0.83;80.82;99540.88;5108571;28;20850;-67
2021/12/14 05:22:21;;;;;;;148.73;61.95;;;;;;;0.78;80.58;99521.78;5108122;28;20027;-67
2021/12/14 05:24:53;;;;;;;148.20;57.03;;;;;;;0.73;80.33;99530.47;5107895;28;20035;-67
2021/12/14 05:27:25;;;;;;;142.75;56.10;;;;;;;0.69;80.61;99529.22;5105921;28;20053;-67
2021/12/14 05:29:51;;;;;;;135.50;53.10;;;;;;;0.68;80.42;99527.56;5108044;28;20023;-67
2021/12/14 05:32:18;;;;;;;144.10;56.90;;;;;;;0.67;81.18;99525.88;5107668;28;20020;-67
2021/12/14 05:34:46;;;;;;;134.48;54.38;;;;;;;0.65;80.52;99520.72;5108132;28;20043;-67
2021/12/14 05:37:19;;;;;;;142.50;50.90;;;;;;;0.66;80.65;99524.22;5107704;28;20116;-67
2021/12/14 05:39:52;;;;;;;138.82;52.58;;;;;;;0.68;80.49;99530.25;5107996;28;20035;-67
2021/12/14 05:45:12;;;;;;;138.93;54.33;;;;;;;0.62;80.56;99517.56;5107433;28;20043;-67
2021/12/14 05:47:50;;;;;;;151.65;54.95;;;;;;;0.61;80.91;99515.94;5107434;28;20057;-67
2021/12/14 05:50:33;;;;;;;154.50;52.95;;;;;;;0.55;81.01;99521.09;5107607;28;20023;-67
2021/12/14 05:52:59;;;;;;;142.27;50.00;;;;;;;0.55;80.90;99520.25;5105867;28;20089;-67
2021/12/14 05:55:33;;;;;;;123.40;45.17;;;;;;;0.54;80.94;99524.84;5108104;28;20460;-67
2021/12/14 05:58:01;;;;;;;168.73;58.30;;;;;;;0.54;81.28;99532.09;5109176;28;20459;-67
2021/12/14 06:00:29;;;;;;;148.25;51.00;;;;;;;0.51;81.46;99522.56;5111323;28;20035;-68
2021/12/14 06:02:55;;;;;;;136.30;54.30;;;;;;;0.53;81.09;99533.97;5108853;28;20050;-67
2021/12/14 06:05:22;;;;;;;130.43;49.22;;;;;;;0.53;81.23;99520.47;5111358;28;20055;-67
2021/12/14 06:07:49;;;;;;;118.30;46.97;;;;;;;0.53;81.55;99517.78;5092513;28;20028;-67
2021/12/14 06:10:19;;;;;;;98.43;41.53;;;;;;;0.55;82.03;99515.72;5110950;28;20110;-67
2021/12/14 06:12:45;;;;;;;105.05;41.95;;;;;;;0.59;81.41;99508.88;5110948;28;20032;-67
2021/12/14 06:15:16;;;;;;;102.60;39.35;;;;;;;0.63;81.84;99513.81;5111133;28;20031;-67
2021/12/14 06:17:42;;;;;;;88.10;36.70;;;;;;;0.66;81.56;99508.88;5110993;28;20038;-68
2021/12/14 06:20:26;;;;;;;91.97;37.22;;;;;;;0.69;81.39;99513.88;5092279;28;20027;-66
2021/12/14 06:22:53;;;;;;;114.40;43.65;;;;;;;0.69;81.72;99516.56;5110773;28;20024;-67
2021/12/14 06:25:23;;;;;;;120.22;44.30;;;;;;;0.71;81.72;99513.63;5111492;28;20019;-67
2021/12/14 06:27:49;;;;;;;118.88;44.45;;;;;;;0.71;81.89;99510.94;5110766;28;20639;-67
2021/12/14 06:30:21;;;;;;;114.28;43.30;;;;;;;0.70;81.38;99507.44;5112145;28;20503;-67
2021/12/14 06:32:52;;;;;;;127.35;45.80;;;;;;;0.71;81.21;99516.34;5111435;28;20044;-67
2021/12/14 06:35:27;;;;;;;127.22;45.42;;;;;;;0.73;81.56;99504.31;5093820;28;20068;-67
2021/12/14 06:40:58;;;;;;;121.65;45.17;;;;;;;0.78;82.24;99503.69;5111350;28;20485;-67
2021/12/14 06:43:47;;;;;;;107.07;42.92;;;;;;;0.83;82.00;99508.47;5111442;28;20023;-67
2021/12/14 06:46:19;;;;;;;105.67;41.00;;;;;;;0.90;81.78;99506.59;5110779;28;20189;-67
2021/12/14 06:49:07;;;;;;;113.03;43.75;;;;;;;0.95;82.16;99506.81;5111596;28;20040;-67
2021/12/14 06:51:42;;;;;;;102.65;40.95;;;;;;;1.02;81.65;99506.81;5109527;28;20023;-67
2021/12/14 06:54:16;;;;;;;95.13;38.55;;;;;;;1.08;81.90;99505.16;5110719;28;20024;-67
2021/12/14 06:56:43;;;;;;;97.40;39.00;;;;;;;1.11;81.92;99499.34;5111450;28;20031;-68
2021/12/14 06:59:15;;;;;;;90.60;36.42;;;;;;;1.13;81.67;99497.25;5111261;28;20042;-67
2021/12/14 07:01:47;;;;;;;74.15;30.23;;;;;;;1.16;82.02;99494.97;5111715;28;20039;-68
2021/12/14 07:04:17;;;;;;;83.80;34.58;;;;;;;1.18;82.21;99502.88;5110918;28;20042;-67
2021/12/14 07:06:48;;;;;;;90.72;35.95;;;;;;;1.22;81.48;99489.75;5111041;28;20024;-68
2021/12/14 07:09:20;;;;;;;84.22;35.13;;;;;;;1.26;81.71;99496.41;5111203;28;20027;-67
2021/12/14 07:11:59;;;;;;;82.13;34.17;;;;;;;1.32;81.67;99509.91;5111529;28;20031;-67
2021/12/14 07:14:27;;;;;;;84.18;33.67;;;;;;;1.34;81.62;99505.13;5111277;28;20432;-67
2021/12/14 07:17:01;;;;;;;93.80;39.90;;;;;;;1.32;81.44;99506.41;5111511;28;20023;-67
2021/12/14 07:19:48;;;;;;;84.88;35.30;;;;;;;1.31;81.22;99508.25;5110876;28;20118;-67
2021/12/14 07:22:22;;;;;;;90.88;34.97;;;;;;;1.30;81.00;99501.19;5110176;28;20028;-68
2021/12/14 07:24:58;;;;;;;101.05;38.05;;;;;;;1.29;81.68;99509.50;5110658;28;20019;-67
2021/12/14 07:27:28;;;;;;;100.65;38.05;;;;;;;1.32;81.30;99511.78;5110569;28;20034;-67
2021/12/14 07:30:13;;;;;;;94.85;36.47;;;;;;;1.32;81.13;99518.03;5110970;28;20051;-67
2021/12/14 07:32:50;;;;;;;91.10;36.35;;;;;;;1.32;81.17;99506.41;5111178;28;20046;-67
2021/12/14 07:35:34;;;;;;;97.65;39.78;;;;;;;1.33;81.94;99513.47;5110712;28;20048;-67
2021/12/14 07:38:32;;;;;;;94.25;35.70;;;;;;;1.35;81.60;99516.78;5109672;28;20035;-68
2021/12/14 07:41:18;;;;;;;96.07;37.08;;;;;;;1.38;81.58;99510.97;5092152;28;20132;-67
2021/12/14 07:43:50;;;;;;;90.10;35.08;;;;;;;1.42;81.89;99512.22;5110775;28;20035;-67
2021/12/14 07:46:21;;;;;;;101.60;38.85;;;;;;;1.44;81.72;99512.81;5110420;28;20028;-67
2021/12/14 07:48:56;;;;;;;163.77;62.22;;;;;;;1.55;81.60;99524.88;5110410;28;20107;-66
2021/12/14 07:51:23;;;;;;;143.18;57.42;;;;;;;1.66;82.14;99525.25;5110668;28;20540;-67
2021/12/14 07:53:54;;;;;;;121.60;46.22;;;;;;;1.73;82.11;99521.50;5110567;28;20024;-67
2021/12/14 07:56:25;;;;;;;124.15;46.92;;;;;;;1.76;81.32;99502.16;5110450;28;20084;-67
2021/12/14 07:58:50;;;;;;;129.30;47.28;;;;;;;1.83;81.70;99510.22;5109958;28;20474;-67
2021/12/14 08:01:16;;;;;;;111.85;42.42;;;;;;;1.95;81.95;99517.69;5110747;28;20107;-68
2021/12/14 08:03:42;;;;;;;100.82;36.75;;;;;;;2.05;82.00;99521.59;5110373;28;20387;-68
2021/12/14 08:06:11;;;;;;;108.22;40.17;;;;;;;2.05;81.19;99516.19;5110405;28;20016;-68
2021/12/14 08:08:53;;;;;;;102.75;37.95;;;;;;;2.03;80.84;99510.16;5091797;28;20196;-68
2021/12/14 08:14:08;;;;;;;101.35;40.90;;;;;;;2.26;81.27;99521.53;5110507;28;20050;-67
2021/12/14 08:16:46;;;;;;;80.50;32.75;;;;;;;2.32;81.44;99521.47;5110225;28;20053;-67
2021/12/14 08:19:33;;;;;;;80.57;32.83;;;;;;;2.39;81.73;99521.47;5109287;28;20051;-68
2021/12/14 08:22:04;;;;;;;100.93;40.58;;;;;;;2.43;81.58;99535.38;5107580;28;20028;-68
2021/12/14 08:24:30;;;;;;;89.28;38.38;;;;;;;2.50;81.11;99533.47;5110190;28;20027;-68
2021/12/14 08:26:58;;;;;;;92.68;37.70;;;;;;;2.61;81.75;99537.38;5110453;28;20031;-68
2021/12/14 08:29:27;;;;;;;97.45;41.45;;;;;;;2.67;81.48;99526.47;5108944;28;20031;-68
2021/12/14 08:32:15;;;;;;;114.40;43.00;;;;;;;2.76;81.37;99527.06;5091798;28;20032;-68
2021/12/14 08:34:45;;;;;;;123.28;47.85;;;;;;;2.79;80.67;99517.66;5109934;28;20027;-68
2021/12/14 08:37:13;;;;;;;;;;;;;;;2.79;81.16;99513.09;5110499;28;20073;-67
2021/12/14 08:39:47;;;;;;;169.95;71.95;;;;;;;2.86;81.02;99506.78;5110414;28;19950;-68
2021/12/14 08:42:29;;;;;;;163.82;64.60;;;;;;;2.94;80.65;99507.34;5110305;28;20020;-67
2021/12/14 08:44:59;;;;;;;166.82;60.83;;;;;;;2.94;80.95;99511.94;5091162;28;20476;-68
2021/12/14 08:47:43;;;;;;;169.52;66.47;;;;;;;2.98;80.30;99513.16;5109977;28;20027;-67
2021/12/14 08:50:12;;;;;;;157.05;61.50;;;;;;;2.95;80.73;99521.72;5103858;28;20084;-67
2021/12/14 08:52:40;;;;;;;146.82;56.15;;;;;;;2.96;80.64;99515.25;5109303;28;20024;-67
2021/12/14 08:55:10;;;;;;;162.15;63.08;;;;;;;2.86;80.73;99504.06;5109158;28;20019;-67
2021/12/14 08:57:37;;;;;;;;;;;;;;;2.90;80.64;99508.00;5109546;28;20039;-67
2021/12/14 09:00:26;;;;;;;133.90;48.30;;;;;;;2.91;80.42;99505.09;5109718;28;19943;-67
2021/12/14 09:02:54;;;;;;;140.85;51.50;;;;;;;2.99;80.52;99503.97;5109528;28;20035;-68
2021/12/14 09:05:26;;;;;;;107.75;41.85;;;;;;;3.04;81.18;99500.63;5109284;28;20026;-67
2021/12/14 09:07:52;;;;;;;134.73;49.10;;;;;;;3.06;80.93;99501.19;5109198;28;20035;-66
2021/12/14 09:10:21;;;;;;;121.28;47.22;;;;;;;3.07;80.63;99498.28;5108882;28;20028;-67
2021/12/14 09:12:50;;;;;;;131.40;49.15;;;;;;;3.11;79.99;99498.66;5107737;28;20054;-68
2021/12/14 09:15:23;;;;;;;124.63;48.00;;;;;;;3.24;80.71;99500.44;5107103;28;20111;-66
2021/12/14 09:17:50;;;;;;;111.90;45.80;;;;;;;3.27;80.32;99495.41;5106940;28;20020;-67
2021/12/14 09:20:27;;;;;;;123.95;47.45;;;;;;;3.34;80.37;99506.16;5109017;28;20028;-68
2021/12/14 09:22:58;;;;;;;119.22;49.25;;;;;;;3.44;80.50;99497.56;5109005;28;20043;-67
2021/12/14 09:25:29;;;;;;;144.75;56.35;;;;;;;3.46;80.61;99497.31;5108448;28;20027;-67
2021/12/14 09:27:57;;;;;;;154.57;61.58;;;;;;;3.47;80.08;99498.97;5112526;28;20379;-67
2021/12/14 09:30:25;;;;;;;154.27;60.28;;;;;;;3.51;80.24;99490.16;5113359;27;20382;-67
2021/12/14 09:32:51;;;;;;;127.57;52.60;;;;;;;3.48;80.01;99487.88;5116540;27;20034;-67
2021/12/14 09:35:21;;;;;;;123.93;48.38;;;;;;;3.52;79.83;99480.97;5117935;27;20111;-67
2021/12/14 09:37:50;;;;;;;133.43;56.13;;;;;;;3.52;79.32;99478.25;5094327;28;20447;-67
2021/12/14 09:40:23;;;;;;;115.73;48.43;;;;;;;3.45;79.25;99474.81;5107912;28;20084;-65
2021/12/14 09:42:49;;;;;;;127.72;50.00;;;;;;;3.35;79.27;99474.47;5111915;28;20046;-67
2021/12/14 09:45:29;;;;;;;112.03;46.22;;;;;;;3.35;78.99;99474.47;5112398;28;20471;-66
2021/12/14 09:47:55;;;;;;;131.85;49.17;;;;;;;3.37;79.41;99481.31;5111947;28;20023;-68
2021/12/14 09:50:26;;;;;;;115.60;46.35;;;;;;;3.45;80.11;99477.50;5112993;28;20028;-68
2021/12/14 09:52:53;;;;;;;121.53;45.65;;;;;;;3.43;80.08;99471.47;5112999;28;20026;-67
2021/12/14 09:55:24;;;;;;;120.82;46.08;;;;;;;3.49;79.87;99483.31;5113620;28;20079;-67
2021/12/14 09:57:54;;;;;;;109.93;42.45;;;;;;;3.47;79.46;99478.09;5112774;28;20039;-68
2021/12/14 10:00:32;;;;;;;98.47;41.88;;;;;;;3.32;79.40;99481.16;5112343;28;20421;-68
2021/12/14 10:03:02;;;;;;;110.70;45.10;;;;;;;3.21;78.69;99480.00;5112450;28;20024;-68
2021/12/14 10:05:39;;;;;;;98.63;43.28;;;;;;;3.19;78.89;99481.31;5111735;28;20432;-68
2021/12/14 10:08:15;;;;;;;141.35;52.78;;;;;;;3.15;78.88;99475.47;5113089;27;20028;-66
2021/12/14 10:10:44;;;;;;;113.55;46.75;;;;;;;3.15;78.77;99477.38;5112305;28;20038;-67
2021/12/14 10:13:10;;;;;;;125.63;46.33;;;;;;;3.24;79.38;99479.56;5112240;28;20019;-68
2021/12/14 10:15:48;;;;;;;117.57;48.67;;;;;;;3.37;79.64;99472.38;5112439;28;20495;-70
2021/12/14 10:18:25;;;;;;;135.95;52.47;;;;;;;3.49;79.48;99475.16;5112112;28;20263;-68
2021/12/14 10:20:56;;;;;;;141.93;55.30;;;;;;;3.60;79.96;99481.72;5112248;28;20073;-67
2021/12/14 10:23:23;;;;;;;151.68;57.75;;;;;;;3.69;79.97;99477.66;5093944;28;20063;-70
2021/12/14 10:25:51;;;;;;;127.63;48.90;;;;;;;3.76;79.67;99467.56;5111593;28;20047;-69
2021/12/14 10:28:17;;;;;;;115.03;46.25;;;;;;;3.73;79.30;99471.56;5093092;28;20031;-68
2021/12/14 10:30:53;;;;;;;128.90;50.58;;;;;;;3.74;78.91;99461.53;5110630;28;20038;-68
2021/12/14 10:33:19;;;;;;;110.82;48.65;;;;;;;3.79;79.73;99453.56;5111014;27;20114;-67
2021/12/14 10:35:51;;;;;;;113.50;45.55;;;;;;;3.85;78.97;99447.22;5112744;27;20720;-69
2021/12/14 10:38:27;;;;;;;118.63;49.58;;;;;;;3.90;79.31;99451.13;5110327;27;20376;-70
2021/12/14 10:44:01;;;;;;;125.25;47.78;;;;;;;3.96;78.79;99445.63;5112261;28;20031;-68
2021/12/14 10:46:31;;;;;;;110.43;49.40;;;;;;;4.01;79.21;99450.34;5112581;27;20015;-66
2021/12/14 10:48:58;;;;;;;119.68;47.70;;;;;;;4.01;78.99;99443.06;5110776;28;20495;-67
2021/12/14 10:51:31;;;;;;;121.10;48.90;;;;;;;4.01;78.88;99444.94;5092976;28;20459;-67
2021/12/14 10:54:00;;;;;;;140.88;57.53;;;;;;;4.04;78.82;99447.19;5110495;28;20533;-72
2021/12/14 10:56:30;;;;;;;123.85;51.40;;;;;;;4.02;78.93;99436.56;5109422;28;20107;-68
2021/12/14 10:59:01;;;;;;;146.93;56.17;;;;;;;4.00;79.11;99441.41;5091909;27;20080;-69
2021/12/14 11:01:32;;;;;;;135.82;50.13;;;;;;;4.02;79.24;99436.56;5110169;27;20103;-71
2021/12/14 11:04:11;;;;;;;131.20;49.50;;;;;;;4.01;79.22;99437.63;5092803;28;20031;-71
2021/12/14 11:06:42;;;;;;;139.60;51.97;;;;;;;4.01;79.43;99437.63;5109323;28;20387;-73
2021/12/14 11:11:37;;;;;;;132.32;50.28;;;;;;;4.04;79.16;99430.09;5109470;28;20476;-69
2021/12/14 11:14:13;;;;;;;116.20;47.95;;;;;;;4.06;78.89;99431.50;5110889;28;20031;-69
2021/12/14 11:19:35;;;;;;;114.32;46.85;;;;;;;3.99;78.63;99436.19;5107361;27;20063;-68
2021/12/14 11:22:11;;;;;;;109.43;45.40;;;;;;;4.02;78.78;99433.84;5111004;28;20031;-68
2021/12/14 11:24:39;;;;;;;109.68;45.60;;;;;;;4.01;79.25;99425.91;5110514;28;20027;-66
2021/12/14 11:27:16;;;;;;;128.32;51.65;;;;;;;4.00;78.73;99433.25;5109479;28;20106;-66
2021/12/14 11:29:42;;;;;;;118.55;48.10;;;;;;;4.00;78.34;99427.81;5109196;28;20031;-67
2021/12/14 11:32:16;;;;;;;126.00;51.65;;;;;;;4.06;79.05;99427.97;5109232;28;20356;-68
2021/12/14 11:34:41;;;;;;;117.72;49.58;;;;;;;4.05;78.46;99437.16;5109342;28;20026;-67
2021/12/14 11:37:14;;;;;;;112.72;48.78;;;;;;;4.03;78.85;99431.94;5089716;28;20102;-68
2021/12/14 11:39:47;;;;;;;130.13;52.13;;;;;;;3.98;78.94;99437.22;5109859;28;20032;-68
2021/12/14 11:42:18;;;;;;;138.45;57.63;;;;;;;3.94;78.61;99439.59;5108973;28;20032;-67
2021/12/14 11:45:08;;;;;;;150.95;61.90;;;;;;;3.86;78.91;99443.44;5108911;28;20509;-68
2021/12/14 11:50:12;;;;;;;149.38;61.97;;;;;;;3.92;79.13;99435.44;5109949;28;20036;-68
2021/12/14 11:53:13;;;;;;;140.70;57.25;;;;;;;3.91;78.93;99436.50;5109604;28;20081;-71
2021/12/14 11:56:00;;;;;;;130.65;52.53;;;;;;;3.88;79.09;99421.50;5108711;28;20023;-68
2021/12/14 11:58:30;;;;;;;164.20;60.88;;;;;;;3.83;78.24;99429.50;5106317;28;20089;-68
2021/12/14 12:01:17;;;;;;;144.25;60.30;;;;;;;3.88;78.42;99430.47;5110136;28;20039;-68
2021/12/14 12:03:46;;;;;;;142.13;59.80;;;;;;;3.95;78.68;99421.41;5110515;28;20027;-69
2021/12/14 12:11:47;;;;;;;147.60;56.85;;;;;;;4.05;78.96;99415.44;5110237;28;20514;-69
2021/12/14 12:14:41;;;;;;;154.63;59.85;;;;;;;4.04;79.15;99419.22;5110574;28;20039;-68
2021/12/14 12:17:07;;;;;;;158.70;58.97;;;;;;;4.04;78.71;99416.50;5102220;27;20798;-67
2021/12/14 12:19:32;;;;;;;138.13;54.05;;;;;;;4.06;78.59;99417.09;5110127;28;20044;-66
2021/12/14 12:22:07;;;;;;;162.48;65.05;;;;;;;4.00;78.84;99405.25;5110707;28;20032;-68
2021/12/14 12:24:36;;;;;;;148.18;59.80;;;;;;;4.00;78.22;99408.81;5107001;28;20050;-68
2021/12/14 12:27:23;;;;;;;150.73;60.47;;;;;;;4.03;78.44;99404.81;5112133;27;20045;-69
2021/12/14 12:30:23;;;;;;;143.82;58.72;;;;;;;3.99;78.68;99403.59;5109415;28;20120;-67
2021/12/14 12:32:49;;;;;;;128.25;53.45;;;;;;;4.02;78.94;99411.28;5091425;28;20038;-67